createdAt,value
2022-12-18T00:01:36.820Z,102224.00
2022-12-18T00:04:20.831Z,102237.75
2022-12-18T00:07:01.759Z,102237.72
2022-12-18T00:09:43.137Z,102241.13
2022-12-18T00:12:23.422Z,102235.13
2022-12-18T00:15:04.656Z,102236.84
2022-12-18T00:17:45.830Z,102236.81
2022-12-18T00:20:26.580Z,102247.94
2022-12-18T00:23:07.233Z,102253.03
2022-12-18T00:25:48.410Z,102252.16
2022-12-18T00:28:29.894Z,102241.88
2022-12-18T00:31:11.970Z,102243.56
2022-12-18T00:33:54.125Z,102243.56
2022-12-18T00:36:35.960Z,102248.69
2022-12-18T00:39:17.019Z,102245.22
2022-12-18T00:42:16.238Z,102252.09
2022-12-18T00:44:57.626Z,102251.25
2022-12-18T00:47:40.859Z,102246.97
2022-12-18T00:50:22.091Z,102248.66
2022-12-18T00:53:03.455Z,102258.06
2022-12-18T00:55:44.707Z,102254.66
2022-12-18T00:58:26.067Z,102248.66
2022-12-18T01:01:08.119Z,102242.63
2022-12-18T01:03:50.888Z,102243.50
2022-12-18T01:06:32.055Z,102245.19
2022-12-18T01:09:13.305Z,102247.72
2022-12-18T01:11:53.322Z,102251.13
2022-12-18T01:14:34.548Z,102243.41
2022-12-18T01:17:14.315Z,102234.81
2022-12-18T01:19:56.138Z,102239.97
2022-12-18T01:22:39.164Z,102239.94
2022-12-18T01:25:21.755Z,102228.78
2022-12-18T01:28:04.987Z,102232.22
2022-12-18T01:30:46.138Z,102229.63
2022-12-18T01:33:27.564Z,102245.03
2022-12-18T01:36:07.618Z,102245.06
2022-12-18T01:38:50.971Z,102260.47
2022-12-18T01:41:54.521Z,102265.59
2022-12-18T01:44:57.147Z,102265.59
2022-12-18T01:47:41.819Z,102262.19
2022-12-18T01:50:24.118Z,102271.59
2022-12-18T01:53:06.171Z,102270.75
2022-12-18T01:55:47.395Z,102272.47
2022-12-18T01:58:29.650Z,102261.31
2022-12-18T02:01:09.644Z,102269.03
2022-12-18T02:03:53.293Z,102281.00
2022-12-18T02:06:38.525Z,102275.03
2022-12-18T02:09:19.638Z,102281.00
2022-12-18T02:12:03.454Z,102279.31
2022-12-18T02:14:48.001Z,102280.09
2022-12-18T02:17:32.334Z,102271.59
2022-12-18T02:20:15.798Z,102272.44
2022-12-18T02:23:01.499Z,102281.88
2022-12-18T02:26:04.456Z,102284.38
2022-12-18T02:28:47.843Z,102275.78
2022-12-18T02:31:28.860Z,102279.19
2022-12-18T02:34:11.784Z,102278.34
2022-12-18T02:36:52.789Z,102268.91
2022-12-18T02:39:34.473Z,102263.72
2022-12-18T02:42:19.117Z,102252.63
2022-12-18T02:45:00.133Z,102245.78
2022-12-18T02:47:42.686Z,102253.47
2022-12-18T02:50:24.819Z,102254.34
2022-12-18T02:53:11.426Z,102264.59
2022-12-18T02:55:54.948Z,102259.44
2022-12-18T02:58:36.442Z,102259.41
2022-12-18T03:01:27.353Z,102259.41
2022-12-18T03:04:10.012Z,102257.69
2022-12-18T03:06:51.063Z,102259.38
2022-12-18T03:09:31.069Z,102251.63
2022-12-18T03:12:26.863Z,102249.88
2022-12-18T03:15:17.595Z,102251.56
2022-12-18T03:18:01.402Z,102251.56
2022-12-18T03:20:46.992Z,102250.72
2022-12-18T03:23:31.631Z,102239.56
2022-12-18T03:26:13.073Z,102241.28
2022-12-18T03:28:58.621Z,102244.69
2022-12-18T03:31:40.997Z,102254.97
2022-12-18T03:34:21.954Z,102254.13
2022-12-18T03:37:02.831Z,102254.97
2022-12-18T03:39:47.848Z,102258.38
2022-12-18T03:42:29.622Z,102253.19
2022-12-18T03:45:22.590Z,102255.78
2022-12-18T03:48:05.464Z,102260.06
2022-12-18T03:50:50.777Z,102250.63
2022-12-18T03:53:37.633Z,102250.59
2022-12-18T03:56:18.308Z,102253.19
2022-12-18T03:58:58.134Z,102253.31
2022-12-18T04:01:44.013Z,102257.66
2022-12-18T04:04:27.720Z,102261.94
2022-12-18T04:07:08.702Z,102263.66
2022-12-18T04:09:53.952Z,102255.94
2022-12-18T04:12:36.297Z,102254.19
2022-12-18T04:15:17.718Z,102265.38
2022-12-18T04:17:59.154Z,102258.56
2022-12-18T04:20:47.171Z,102262.34
2022-12-18T04:23:30.368Z,102272.63
2022-12-18T04:26:13.011Z,102283.03
2022-12-18T04:29:21.967Z,102296.72
2022-12-18T04:32:02.969Z,102315.63
2022-12-18T04:34:45.973Z,102317.38
2022-12-18T04:37:25.757Z,102321.78
2022-12-18T04:40:03.667Z,102342.34
2022-12-18T04:42:53.844Z,102346.63
2022-12-18T04:45:34.851Z,102358.66
2022-12-18T04:48:16.595Z,102373.25
2022-12-18T04:50:57.597Z,102377.50
2022-12-18T04:53:39.784Z,102395.50
2022-12-18T04:56:20.414Z,102396.41
2022-12-18T04:59:00.226Z,102412.84
2022-12-18T05:01:40.060Z,102423.09
2022-12-18T05:04:19.892Z,102442.84
2022-12-18T05:07:01.261Z,102461.00
2022-12-18T05:09:43.054Z,102474.72
2022-12-18T05:12:27.417Z,102485.00
2022-12-18T05:15:09.480Z,102500.38
2022-12-18T05:17:50.054Z,102516.66
2022-12-18T05:20:30.072Z,102520.09
2022-12-18T05:23:11.288Z,102525.22
2022-12-18T05:25:52.260Z,102525.25
2022-12-18T05:28:32.913Z,102530.34
2022-12-18T05:31:14.404Z,102535.56
2022-12-18T05:33:55.571Z,102535.53
2022-12-18T05:36:36.726Z,102545.06
2022-12-18T05:39:16.526Z,102564.78
2022-12-18T05:41:56.315Z,102563.84
2022-12-18T05:44:39.793Z,102563.81
2022-12-18T05:47:20.761Z,102566.34
2022-12-18T05:50:00.586Z,102565.47
2022-12-18T05:52:42.355Z,102572.31
2022-12-18T05:55:23.580Z,102567.19
2022-12-18T05:58:05.136Z,102562.88
2022-12-18T06:00:46.673Z,102554.31
2022-12-18T06:03:33.541Z,102549.97
2022-12-18T06:06:17.448Z,102542.25
2022-12-18T06:08:58.586Z,102540.53
2022-12-18T06:11:39.913Z,102533.66
2022-12-18T06:14:21.219Z,102525.88
2022-12-18T06:17:01.245Z,102525.00
2022-12-18T06:19:42.469Z,102513.00
2022-12-18T06:22:22.225Z,102509.53
2022-12-18T06:25:02.064Z,102509.53
2022-12-18T06:27:43.974Z,102503.50
2022-12-18T06:30:25.050Z,102492.34
2022-12-18T06:33:06.297Z,102480.34
2022-12-18T06:35:46.079Z,102470.91
2022-12-18T06:38:27.921Z,102482.88
2022-12-18T06:41:09.963Z,102480.31
2022-12-18T06:43:50.299Z,102472.56
2022-12-18T06:46:33.079Z,102472.56
2022-12-18T06:49:15.149Z,102469.91
2022-12-18T06:51:56.140Z,102462.19
2022-12-18T06:54:37.934Z,102460.47
2022-12-18T06:57:18.911Z,102455.31
2022-12-18T06:59:58.731Z,102448.47
2022-12-18T07:02:38.608Z,102448.47
2022-12-18T07:05:20.035Z,102444.19
2022-12-18T07:08:01.348Z,102435.66
2022-12-18T07:10:48.200Z,102444.19
2022-12-18T07:13:31.001Z,102441.63
2022-12-18T07:16:20.910Z,102447.66
2022-12-18T07:19:04.603Z,102454.47
2022-12-18T07:21:44.374Z,102456.19
2022-12-18T07:24:26.182Z,102454.44
2022-12-18T07:27:07.200Z,102452.75
2022-12-18T07:29:48.577Z,102446.72
2022-12-18T07:32:28.389Z,102449.28
2022-12-18T07:35:10.210Z,102447.56
2022-12-18T07:37:51.234Z,102447.56
2022-12-18T07:40:31.055Z,102439.84
2022-12-18T07:43:12.446Z,102448.44
2022-12-18T07:45:52.500Z,102444.13
2022-12-18T07:48:33.804Z,102441.56
2022-12-18T07:51:15.221Z,102436.44
2022-12-18T07:53:56.491Z,102423.59
2022-12-18T07:56:37.873Z,102419.31
2022-12-18T07:59:17.700Z,102409.09
2022-12-18T08:01:57.678Z,102403.09
2022-12-18T08:04:38.904Z,102406.56
2022-12-18T08:07:18.699Z,102410.88
2022-12-18T08:10:00.525Z,102412.59
2022-12-18T08:12:41.561Z,102410.03
2022-12-18T08:15:21.345Z,102414.31
2022-12-18T08:18:01.125Z,102416.91
2022-12-18T08:20:40.933Z,102411.78
2022-12-18T08:23:20.745Z,102414.44
2022-12-18T08:26:01.280Z,102407.66
2022-12-18T08:28:42.127Z,102402.50
2022-12-18T08:31:35.235Z,102406.91
2022-12-18T08:34:16.593Z,102417.31
2022-12-18T08:36:58.431Z,102419.03
2022-12-18T08:39:41.370Z,102418.28
2022-12-18T08:42:40.059Z,102429.47
2022-12-18T08:45:21.339Z,102444.38
2022-12-18T08:48:02.671Z,102465.03
2022-12-18T08:50:42.600Z,102476.28
2022-12-18T08:53:22.738Z,102496.28
2022-12-18T08:56:03.879Z,102526.41
2022-12-18T08:58:43.696Z,102554.00
2022-12-18T09:01:25.346Z,102579.19
2022-12-18T09:04:06.468Z,102601.59
2022-12-18T09:06:49.450Z,102607.63
2022-12-18T09:09:29.279Z,102624.91
2022-12-18T09:12:09.071Z,102642.25
2022-12-18T09:14:50.476Z,102658.72
2022-12-18T09:17:30.261Z,102673.50
2022-12-18T09:20:12.439Z,102683.84
2022-12-18T09:22:53.039Z,102695.97
2022-12-18T09:25:36.661Z,102703.75
2022-12-18T09:28:18.003Z,102720.13
2022-12-18T09:30:58.933Z,102721.00
2022-12-18T09:33:38.701Z,102729.66
2022-12-18T09:36:19.161Z,102758.19
2022-12-18T09:39:07.559Z,102759.06
2022-12-18T09:41:50.858Z,102775.53
2022-12-18T09:44:33.014Z,102786.78
2022-12-18T09:47:16.679Z,102806.69
2022-12-18T09:49:57.278Z,102823.13
2022-12-18T09:52:39.591Z,102849.09
2022-12-18T09:55:21.452Z,102850.06
2022-12-18T09:58:03.213Z,102846.66
2022-12-18T10:00:45.937Z,102838.91
2022-12-18T10:03:27.500Z,102825.06
2022-12-18T10:06:12.962Z,102824.13
2022-12-18T10:08:53.643Z,102805.06
2022-12-18T10:11:36.808Z,102771.22
2022-12-18T10:14:30.216Z,102740.88
2022-12-18T10:17:12.910Z,102704.50
2022-12-18T10:19:58.508Z,102668.06
2022-12-18T10:22:43.160Z,102627.28
2022-12-18T10:25:25.780Z,102604.75
2022-12-18T10:28:12.159Z,102588.22
2022-12-18T10:30:52.041Z,102567.34
2022-12-18T10:33:32.807Z,102536.00
2022-12-18T10:36:13.388Z,102503.78
2022-12-18T10:38:54.628Z,102480.31
2022-12-18T10:41:34.424Z,102446.34
2022-12-18T10:44:19.731Z,102412.47
2022-12-18T10:47:10.162Z,102392.41
2022-12-18T10:49:55.831Z,102363.69
2022-12-18T10:52:38.660Z,102329.81
2022-12-18T10:55:23.474Z,102299.34
2022-12-18T10:58:21.030Z,102268.88
2022-12-18T11:01:09.031Z,102263.50
2022-12-18T11:04:02.407Z,102234.78
2022-12-18T11:06:54.207Z,102220.81
2022-12-18T11:09:34.717Z,102225.03
2022-12-18T11:12:18.919Z,102225.72
2022-12-18T11:15:01.039Z,102214.31
2022-12-18T11:17:41.808Z,102211.69
2022-12-18T11:20:24.481Z,102209.88
2022-12-18T11:23:05.182Z,102208.13
2022-12-18T11:25:51.741Z,102189.72
2022-12-18T11:28:36.823Z,102194.00
2022-12-18T11:31:21.770Z,102192.16
2022-12-18T11:34:27.918Z,102418.53
2022-12-18T11:37:06.709Z,102406.03
2022-12-18T11:39:52.083Z,102392.59
2022-12-18T11:42:35.016Z,102390.41
2022-12-18T11:45:32.094Z,102394.31
2022-12-18T11:48:17.009Z,102391.97
2022-12-18T11:50:58.283Z,102375.22
2022-12-18T11:53:40.894Z,102369.75
2022-12-18T11:56:28.575Z,102379.59
2022-12-18T11:59:11.403Z,102378.44
2022-12-18T12:01:53.836Z,102389.13
2022-12-18T12:04:41.536Z,102381.84
2022-12-18T12:07:25.466Z,102380.13
2022-12-18T12:10:11.883Z,102379.34
2022-12-18T12:12:57.683Z,102382.13
2022-12-18T12:15:41.578Z,102382.31
2022-12-18T12:18:23.020Z,102382.38
2022-12-18T12:21:05.717Z,102380.81
2022-12-18T12:23:50.043Z,102386.03
2022-12-18T12:26:35.002Z,102378.28
2022-12-18T12:29:21.385Z,102375.81
2022-12-18T12:32:13.312Z,102371.47
2022-12-18T12:35:04.724Z,102369.00
2022-12-18T12:37:48.447Z,102351.50
2022-12-18T12:43:35.635Z,102347.31
2022-12-18T12:46:19.562Z,102337.84
2022-12-18T12:49:02.729Z,102325.03
2022-12-18T12:51:43.994Z,102327.56
2022-12-18T12:54:25.487Z,102341.50
2022-12-18T12:57:07.338Z,102334.56
2022-12-18T12:59:49.959Z,102324.25
2022-12-18T13:02:32.508Z,102329.50
2022-12-18T13:05:18.944Z,102313.94
2022-12-18T13:07:59.953Z,102313.97
2022-12-18T13:10:43.535Z,102314.72
2022-12-18T13:13:24.334Z,102319.84
2022-12-18T13:16:07.836Z,102318.09
2022-12-18T13:18:51.898Z,102324.22
2022-12-18T13:21:31.542Z,102324.25
2022-12-18T13:24:17.922Z,102330.44
2022-12-18T13:26:58.878Z,102334.91
2022-12-18T13:29:44.198Z,102327.06
2022-12-18T13:32:27.687Z,102313.25
2022-12-18T13:35:25.291Z,102307.09
2022-12-18T13:38:20.516Z,102317.63
2022-12-18T13:41:05.722Z,102314.22
2022-12-18T13:43:45.907Z,102310.72
2022-12-18T13:46:29.761Z,102295.03
2022-12-18T13:49:18.890Z,102289.91
2022-12-18T13:52:01.490Z,102288.16
2022-12-18T13:54:42.520Z,102289.22
2022-12-18T13:57:30.821Z,102295.25
2022-12-18T14:00:32.622Z,102282.22
2022-12-18T14:03:24.770Z,102276.31
2022-12-18T14:06:06.581Z,102280.81
2022-12-18T14:08:51.104Z,102267.91
2022-12-18T14:11:32.879Z,102267.91
2022-12-18T14:14:14.013Z,102265.38
2022-12-18T14:16:57.476Z,102259.41
2022-12-18T14:19:38.293Z,102254.16
2022-12-18T14:22:24.729Z,102242.16
2022-12-18T14:25:12.421Z,102236.94
2022-12-18T14:27:54.399Z,102243.94
2022-12-18T14:30:38.782Z,102238.84
2022-12-18T14:33:20.964Z,102241.59
2022-12-18T14:36:01.652Z,102248.69
2022-12-18T14:38:42.579Z,102246.09
2022-12-18T14:41:22.806Z,102234.91
2022-12-18T14:44:08.129Z,102235.03
2022-12-18T14:46:48.390Z,102242.03
2022-12-18T14:49:28.601Z,102238.66
2022-12-18T14:52:29.702Z,102239.59
2022-12-18T14:55:17.015Z,102236.22
2022-12-18T14:58:00.039Z,102241.56
2022-12-18T15:00:41.004Z,102236.56
2022-12-18T15:03:21.390Z,102233.94
2022-12-18T15:06:15.826Z,102227.19
2022-12-18T15:08:58.672Z,102216.94
2022-12-18T15:11:47.283Z,102218.72
2022-12-18T15:14:35.634Z,102207.56
2022-12-18T15:17:20.496Z,102211.03
2022-12-18T15:20:02.107Z,102208.50
2022-12-18T15:22:42.657Z,102210.28
2022-12-18T15:25:27.242Z,102202.50
2022-12-18T15:28:15.057Z,102198.25
2022-12-18T15:31:01.870Z,102200.00
2022-12-18T15:33:46.913Z,102203.56
2022-12-18T15:36:26.347Z,102193.22
2022-12-18T15:39:07.275Z,102193.22
2022-12-18T15:42:02.694Z,102174.34
2022-12-18T15:44:42.719Z,102172.69
2022-12-18T15:47:24.509Z,102181.41
2022-12-18T15:50:08.154Z,102175.31
2022-12-18T15:52:49.155Z,102165.00
2022-12-18T15:55:49.664Z,102150.28
2022-12-18T15:58:33.698Z,102143.47
2022-12-18T16:01:13.613Z,102155.66
2022-12-18T16:03:55.241Z,102153.09
2022-12-18T16:06:45.165Z,102137.50
2022-12-18T16:09:36.996Z,102146.09
2022-12-18T16:12:19.144Z,102139.13
2022-12-18T16:15:00.821Z,102147.81
2022-12-18T16:17:42.190Z,102153.84
2022-12-18T16:20:23.502Z,102153.00
2022-12-18T16:23:04.011Z,102140.06
2022-12-18T16:25:43.881Z,102125.31
2022-12-18T16:28:25.221Z,102123.38
2022-12-18T16:31:05.040Z,102122.19
2022-12-18T16:33:44.997Z,102117.81
2022-12-18T16:36:26.248Z,102121.19
2022-12-18T16:39:06.218Z,102118.38
2022-12-18T16:41:47.993Z,102115.56
2022-12-18T16:44:28.862Z,102117.19
2022-12-18T16:47:09.218Z,102106.78
2022-12-18T16:49:52.753Z,102101.56
2022-12-18T16:52:33.104Z,102095.53
2022-12-18T16:55:12.909Z,102087.75
2022-12-18T16:57:52.693Z,102094.69
2022-12-18T17:00:34.512Z,102081.75
2022-12-18T17:03:17.599Z,102090.31
2022-12-18T17:05:58.536Z,102075.59
2022-12-18T17:08:40.366Z,102079.88
2022-12-18T17:11:21.295Z,102074.63
2022-12-18T17:14:16.243Z,102059.03
2022-12-18T17:17:20.275Z,102050.28
2022-12-18T17:19:58.102Z,102058.09
2022-12-18T17:22:39.894Z,102058.84
2022-12-18T17:25:20.911Z,102056.28
2022-12-18T17:28:00.746Z,102058.00
2022-12-18T17:30:40.529Z,102049.38
2022-12-18T17:33:20.560Z,102045.06
2022-12-18T17:36:03.830Z,102038.13
2022-12-18T17:38:44.889Z,102043.19
2022-12-18T17:41:26.527Z,102044.78
2022-12-18T17:44:07.639Z,102052.47
2022-12-18T17:46:48.998Z,102057.66
2022-12-18T17:49:49.664Z,102071.38
2022-12-18T17:52:31.370Z,102070.31
2022-12-18T17:55:12.391Z,102067.56
2022-12-18T17:57:52.202Z,102044.09
2022-12-18T18:00:32.009Z,102036.97
2022-12-18T18:03:11.915Z,102034.44
2022-12-18T18:05:57.087Z,102023.16
2022-12-18T18:08:37.846Z,102012.53
2022-12-18T18:11:36.130Z,102018.53
2022-12-18T18:14:17.647Z,102021.13
2022-12-18T18:17:04.451Z,102023.41
2022-12-18T18:19:45.923Z,101998.22
2022-12-18T18:22:30.430Z,102006.81
2022-12-18T18:25:11.932Z,102018.81
2022-12-18T18:27:53.240Z,101998.63
2022-12-18T18:30:33.054Z,101993.44
2022-12-18T18:33:14.718Z,101992.59
2022-12-18T18:35:55.845Z,101995.22
2022-12-18T18:38:35.716Z,101993.50
2022-12-18T18:41:15.555Z,101988.25
2022-12-18T18:43:56.743Z,101978.56
2022-12-18T18:46:40.589Z,101962.28
2022-12-18T18:49:21.291Z,101973.41
2022-12-18T18:52:03.361Z,101970.81
2022-12-18T18:55:03.793Z,101971.56
2022-12-18T18:57:46.702Z,101962.81
2022-12-18T19:00:27.720Z,101967.25
2022-12-18T19:03:09.311Z,101968.06
2022-12-18T19:05:52.960Z,101958.34
2022-12-18T19:08:34.326Z,101964.50
2022-12-18T19:11:36.242Z,101959.31
2022-12-18T19:14:17.293Z,101962.81
2022-12-18T19:16:58.595Z,101958.41
2022-12-18T19:19:40.094Z,101958.28
2022-12-18T19:22:21.347Z,101955.66
2022-12-18T19:25:01.360Z,101954.81
2022-12-18T19:27:42.641Z,101954.66
2022-12-18T19:30:24.401Z,101959.13
2022-12-18T19:33:34.497Z,101957.41
2022-12-18T19:36:14.104Z,101961.69
2022-12-18T19:38:55.923Z,101964.25
2022-12-18T19:41:36.828Z,101955.50
2022-12-18T19:44:20.207Z,101960.72
2022-12-18T19:47:01.222Z,101956.19
2022-12-18T19:49:41.079Z,101953.56
2022-12-18T19:52:22.434Z,101956.13
2022-12-18T19:55:06.664Z,101942.16
2022-12-18T19:57:46.584Z,101935.19
2022-12-18T20:00:26.774Z,101932.53
2022-12-18T20:03:18.396Z,101922.97
2022-12-18T20:06:10.651Z,101905.53
2022-12-18T20:08:52.363Z,101884.72
2022-12-18T20:11:41.578Z,101828.38
2022-12-18T20:14:25.837Z,101848.47
2022-12-18T20:17:07.654Z,101939.63
2022-12-18T20:19:48.770Z,101937.09
2022-12-18T20:22:30.513Z,101930.16
2022-12-18T20:25:11.691Z,101916.22
2022-12-18T20:27:58.954Z,101917.97
2022-12-18T20:30:44.210Z,101907.47
2022-12-18T20:33:26.928Z,101903.00
2022-12-18T20:36:11.997Z,101908.31
2022-12-18T20:38:58.049Z,101917.97
2022-12-18T20:41:42.177Z,101919.69
2022-12-18T20:44:24.007Z,101904.84
2022-12-18T20:47:08.812Z,101905.81
2022-12-18T20:49:49.832Z,101902.28
2022-12-18T20:52:33.334Z,101905.75
2022-12-18T20:55:16.154Z,101897.88
2022-12-18T20:57:58.511Z,101898.69
2022-12-18T21:00:38.470Z,101879.53
2022-12-18T21:03:27.080Z,101884.84
2022-12-18T21:06:08.583Z,101907.28
2022-12-18T21:08:51.975Z,101923.75
2022-12-18T21:12:01.825Z,101934.13
2022-12-18T21:14:43.117Z,101933.28
2022-12-18T21:17:24.230Z,101921.22
2022-12-18T21:20:10.732Z,101915.47
2022-12-18T21:23:16.330Z,101900.84
2022-12-18T21:26:09.153Z,101891.31
2022-12-18T21:28:55.871Z,101905.19
2022-12-18T21:31:39.926Z,101895.72
2022-12-18T21:34:21.687Z,101884.28
2022-12-18T21:37:05.231Z,101872.19
2022-12-18T21:39:45.115Z,101879.84
2022-12-18T21:42:47.626Z,101880.69
2022-12-18T21:45:28.698Z,101886.66
2022-12-18T21:48:10.437Z,101869.22
2022-12-18T21:50:51.605Z,101867.41
2022-12-18T21:53:32.969Z,101867.25
2022-12-18T21:56:15.212Z,101877.28
2022-12-18T21:58:57.581Z,101866.63
2022-12-18T22:01:46.996Z,101849.94
2022-12-18T22:04:28.870Z,101832.47
2022-12-18T22:07:09.550Z,101827.06
2022-12-18T22:09:52.572Z,101819.69
2022-12-18T22:12:44.180Z,101816.13
2022-12-18T22:15:28.112Z,101806.69
2022-12-18T22:18:10.973Z,101817.13
2022-12-18T22:21:04.775Z,101815.53
2022-12-18T22:23:45.337Z,101817.63
2022-12-18T22:26:39.246Z,101820.66
2022-12-18T22:29:43.309Z,101827.56
2022-12-18T22:32:31.490Z,101815.66
2022-12-18T22:35:15.830Z,101822.59
2022-12-18T22:37:57.881Z,101809.81
2022-12-18T22:40:38.389Z,101804.59
2022-12-18T22:43:20.201Z,101795.06
2022-12-18T22:46:03.575Z,101793.31
2022-12-18T22:48:44.325Z,101791.50
2022-12-18T22:51:25.613Z,101783.63
2022-12-18T22:54:07.073Z,101787.94
2022-12-18T22:56:46.897Z,101774.09
2022-12-18T22:59:26.634Z,101777.50
2022-12-18T23:02:08.634Z,101762.56
2022-12-18T23:04:49.438Z,101756.84
2022-12-18T23:07:29.277Z,101769.38
2022-12-18T23:10:09.586Z,101776.47
2022-12-18T23:12:50.462Z,101771.66
2022-12-18T23:15:30.300Z,101765.28
2022-12-18T23:18:10.094Z,101777.59
2022-12-18T23:20:49.896Z,101790.31
2022-12-18T23:23:31.312Z,101786.66
2022-12-18T23:26:12.545Z,101789.16
2022-12-18T23:28:55.109Z,101779.69
2022-12-18T23:31:36.193Z,101764.06
2022-12-18T23:34:17.788Z,101764.72
2022-12-18T23:36:58.396Z,101766.06
2022-12-18T23:39:38.125Z,101768.31
2022-12-18T23:42:17.918Z,101763.03
2022-12-18T23:44:59.338Z,101758.66
2022-12-18T23:47:40.766Z,101752.47
2022-12-18T23:50:22.757Z,101743.66
2022-12-18T23:53:10.008Z,101743.53
2022-12-18T23:55:49.790Z,101750.22
2022-12-18T23:58:35.072Z,101742.19
